createdAt,value
2022-11-29T00:01:04.793Z,2.91
2022-11-29T00:03:34.900Z,2.93
2022-11-29T00:06:10.061Z,2.99
2022-11-29T00:08:37.129Z,2.99
2022-11-29T00:11:12.245Z,3.05
2022-11-29T00:13:39.448Z,3.03
2022-11-29T00:16:08.716Z,3.06
2022-11-29T00:18:36.667Z,3.09
2022-11-29T00:21:08.030Z,2.99
2022-11-29T00:23:35.802Z,3.02
2022-11-29T00:26:07.187Z,3.01
2022-11-29T00:28:35.581Z,3.03
2022-11-29T00:31:20.395Z,3.08
2022-11-29T00:33:47.573Z,3.09
2022-11-29T00:36:14.913Z,3.03
2022-11-29T00:38:42.156Z,2.96
2022-11-29T00:41:09.871Z,3.08
2022-11-29T00:43:36.626Z,3.05
2022-11-29T00:46:04.315Z,2.96
2022-11-29T00:48:32.390Z,2.98
2022-11-29T00:50:58.975Z,3.05
2022-11-29T00:53:25.758Z,3.16
2022-11-29T00:55:52.826Z,3.16
2022-11-29T00:58:20.813Z,3.12
2022-11-29T01:00:47.764Z,3.06
2022-11-29T01:03:15.383Z,3.15
2022-11-29T01:05:42.966Z,3.15
2022-11-29T01:08:13.608Z,3.13
2022-11-29T01:10:41.184Z,3.10
2022-11-29T01:13:08.634Z,3.15
2022-11-29T01:15:37.367Z,3.09
2022-11-29T01:18:04.272Z,3.13
2022-11-29T01:20:31.290Z,3.15
2022-11-29T01:22:58.344Z,3.16
2022-11-29T01:25:26.175Z,3.23
2022-11-29T01:27:54.380Z,3.15
2022-11-29T01:30:21.431Z,3.05
2022-11-29T01:32:48.139Z,3.02
2022-11-29T01:35:14.816Z,3.05
2022-11-29T01:37:41.396Z,3.01
2022-11-29T01:40:08.558Z,3.06
2022-11-29T01:42:35.153Z,3.16
2022-11-29T01:45:04.243Z,3.16
2022-11-29T01:47:32.030Z,3.15
2022-11-29T01:50:00.042Z,3.05
2022-11-29T01:52:30.941Z,3.08
2022-11-29T01:55:01.515Z,3.09
2022-11-29T01:57:29.292Z,3.10
2022-11-29T02:00:00.516Z,3.15
2022-11-29T02:02:35.438Z,3.08
2022-11-29T02:05:03.214Z,3.15
2022-11-29T02:07:29.860Z,3.09
2022-11-29T02:09:56.477Z,3.06
2022-11-29T02:12:44.042Z,3.01
2022-11-29T02:15:24.701Z,2.98
2022-11-29T02:18:05.781Z,2.92
2022-11-29T02:20:53.993Z,3.05
2022-11-29T02:23:23.402Z,2.95
2022-11-29T02:26:17.195Z,2.96
2022-11-29T02:29:22.214Z,2.95
2022-11-29T02:32:16.413Z,2.96
2022-11-29T02:34:52.059Z,2.92
2022-11-29T02:37:33.831Z,2.96
2022-11-29T02:40:23.491Z,2.91
2022-11-29T02:43:07.055Z,3.03
2022-11-29T02:45:53.762Z,3.06
2022-11-29T02:48:30.387Z,3.06
2022-11-29T02:51:11.336Z,3.13
2022-11-29T02:53:58.673Z,3.12
2022-11-29T02:56:44.094Z,3.05
2022-11-29T02:59:30.629Z,3.05
2022-11-29T03:02:11.774Z,3.08
2022-11-29T03:04:45.494Z,3.05
2022-11-29T03:07:23.093Z,3.12
2022-11-29T03:10:02.239Z,3.10
2022-11-29T03:12:41.628Z,3.09
2022-11-29T03:15:41.694Z,3.06
2022-11-29T03:18:33.824Z,2.96
2022-11-29T03:21:00.376Z,2.96
2022-11-29T03:23:29.860Z,2.96
2022-11-29T03:26:04.694Z,3.02
2022-11-29T03:28:35.953Z,3.05
2022-11-29T03:31:14.560Z,3.09
2022-11-29T03:34:05.160Z,3.08
2022-11-29T03:36:43.858Z,3.16
2022-11-29T03:39:19.195Z,3.06
2022-11-29T03:41:55.363Z,3.09
2022-11-29T03:44:31.195Z,3.05
2022-11-29T03:47:03.562Z,2.99
2022-11-29T03:49:53.024Z,3.08
2022-11-29T03:52:43.885Z,3.06
2022-11-29T03:55:32.995Z,3.01
2022-11-29T03:58:12.760Z,3.02
2022-11-29T04:01:24.233Z,3.08
2022-11-29T04:04:12.521Z,3.08
2022-11-29T04:07:01.061Z,3.16
2022-11-29T04:10:28.699Z,3.20
2022-11-29T04:13:15.989Z,3.19
2022-11-29T04:16:08.602Z,3.13
2022-11-29T04:19:05.949Z,3.19
2022-11-29T04:21:50.977Z,3.15
2022-11-29T04:25:00.177Z,3.19
2022-11-29T04:27:37.635Z,3.10
2022-11-29T04:30:09.431Z,3.06
2022-11-29T04:33:03.956Z,3.09
2022-11-29T04:35:36.463Z,3.03
2022-11-29T04:38:40.336Z,3.12
2022-11-29T04:41:28.074Z,3.09
2022-11-29T04:44:05.568Z,3.02
2022-11-29T04:46:50.881Z,3.08
2022-11-29T04:49:36.188Z,3.12
2022-11-29T04:52:20.723Z,3.06
2022-11-29T04:55:11.658Z,3.15
2022-11-29T04:57:47.577Z,3.13
2022-11-29T05:00:19.205Z,3.16
2022-11-29T05:03:10.207Z,3.16
2022-11-29T05:05:59.397Z,3.12
2022-11-29T05:08:50.663Z,3.18
2022-11-29T05:11:29.297Z,3.15
2022-11-29T05:14:07.572Z,3.15
2022-11-29T05:16:47.905Z,3.15
2022-11-29T05:19:44.022Z,3.09
2022-11-29T05:22:28.211Z,3.05
2022-11-29T05:25:18.873Z,3.03
2022-11-29T05:27:48.482Z,3.08
2022-11-29T05:30:23.526Z,3.22
2022-11-29T05:33:08.793Z,3.22
2022-11-29T05:35:58.791Z,3.18
2022-11-29T05:38:49.365Z,3.18
2022-11-29T05:41:21.827Z,3.26
2022-11-29T05:44:10.010Z,3.24
2022-11-29T05:46:42.800Z,3.22
2022-11-29T05:49:31.112Z,3.26
2022-11-29T05:51:57.716Z,3.20
2022-11-29T05:54:59.066Z,3.15
2022-11-29T05:57:56.107Z,3.10
2022-11-29T06:00:23.189Z,3.09
2022-11-29T06:03:18.680Z,3.08
2022-11-29T06:05:56.643Z,2.99
2022-11-29T06:08:54.988Z,2.96
2022-11-29T06:11:27.800Z,3.03
2022-11-29T06:14:07.747Z,3.02
2022-11-29T06:16:52.769Z,3.02
2022-11-29T06:19:58.425Z,3.05
2022-11-29T06:23:07.169Z,3.01
2022-11-29T06:25:47.303Z,2.95
2022-11-29T06:28:38.543Z,3.03
2022-11-29T06:31:25.343Z,3.01
2022-11-29T06:34:14.923Z,2.93
2022-11-29T06:36:52.037Z,2.88
2022-11-29T06:39:19.307Z,2.87
2022-11-29T06:41:47.048Z,2.79
2022-11-29T06:44:14.025Z,2.79
2022-11-29T06:47:06.683Z,2.85
2022-11-29T06:49:54.383Z,2.78
2022-11-29T06:52:26.921Z,2.74
2022-11-29T06:55:08.452Z,2.84
2022-11-29T06:58:03.198Z,2.84
2022-11-29T07:00:57.430Z,2.81
2022-11-29T07:04:07.445Z,2.75
2022-11-29T07:06:35.029Z,2.72
2022-11-29T07:09:24.543Z,2.74
2022-11-29T07:11:51.239Z,2.77
2022-11-29T07:14:18.152Z,2.79
2022-11-29T07:16:57.636Z,2.81
2022-11-29T07:19:39.878Z,2.78
2022-11-29T07:22:45.272Z,2.79
2022-11-29T07:25:17.682Z,2.81
2022-11-29T07:28:04.548Z,2.92
2022-11-29T07:30:33.869Z,2.87
2022-11-29T07:33:08.839Z,2.87
2022-11-29T07:36:00.898Z,2.89
2022-11-29T07:38:49.309Z,3.03
2022-11-29T07:41:32.093Z,3.09
2022-11-29T07:44:13.003Z,3.05
2022-11-29T07:46:39.624Z,3.08
2022-11-29T07:49:09.277Z,3.09
2022-11-29T07:51:35.980Z,3.15
2022-11-29T07:54:02.678Z,3.12
2022-11-29T07:56:29.873Z,3.12
2022-11-29T07:58:56.701Z,3.22
2022-11-29T08:01:23.418Z,3.26
2022-11-29T08:03:50.098Z,3.27
2022-11-29T08:06:22.885Z,3.34
2022-11-29T08:08:49.367Z,3.41
2022-11-29T08:11:15.956Z,3.51
2022-11-29T08:13:42.863Z,3.59
2022-11-29T08:16:09.425Z,3.61
2022-11-29T08:18:36.585Z,3.63
2022-11-29T08:21:07.492Z,3.66
2022-11-29T08:23:34.212Z,3.69
2022-11-29T08:26:01.956Z,3.70
2022-11-29T08:28:28.716Z,3.70
2022-11-29T08:31:03.266Z,3.75
2022-11-29T08:33:30.036Z,3.82
2022-11-29T08:35:56.756Z,3.88
2022-11-29T08:38:23.343Z,3.95
2022-11-29T08:40:49.898Z,3.84
2022-11-29T08:43:16.509Z,3.92
2022-11-29T08:45:43.302Z,3.88
2022-11-29T08:48:09.897Z,3.87
2022-11-29T08:50:36.483Z,3.92
2022-11-29T08:53:34.897Z,3.95
2022-11-29T08:56:01.588Z,3.97
2022-11-29T08:58:28.466Z,4.02
2022-11-29T09:00:55.909Z,4.08
2022-11-29T09:03:41.342Z,4.18
2022-11-29T09:06:12.606Z,4.16
2022-11-29T09:08:39.833Z,4.35
2022-11-29T09:11:14.468Z,4.32
2022-11-29T09:13:43.074Z,4.33
2022-11-29T09:16:12.455Z,4.43
2022-11-29T09:18:40.684Z,4.39
2022-11-29T09:21:09.778Z,4.36
2022-11-29T09:23:37.325Z,4.40
2022-11-29T09:26:05.349Z,4.48
2022-11-29T09:28:33.477Z,4.48
2022-11-29T09:31:12.515Z,4.54
2022-11-29T09:33:39.863Z,4.60
2022-11-29T09:36:09.081Z,4.57
2022-11-29T09:38:36.157Z,4.59
2022-11-29T09:41:06.868Z,4.62
2022-11-29T09:44:13.901Z,4.70
2022-11-29T09:46:46.555Z,4.62
2022-11-29T09:49:48.329Z,4.60
2022-11-29T09:52:36.121Z,4.71
2022-11-29T09:55:28.668Z,4.76
2022-11-29T09:57:58.264Z,4.77
2022-11-29T10:00:26.066Z,4.77
2022-11-29T10:03:11.048Z,4.87
2022-11-29T10:05:47.453Z,4.81
2022-11-29T10:08:21.512Z,4.85
2022-11-29T10:10:50.790Z,4.90
2022-11-29T10:13:20.349Z,4.93
2022-11-29T10:15:50.101Z,4.87
2022-11-29T10:18:29.646Z,4.84
2022-11-29T10:20:58.559Z,4.90
2022-11-29T10:23:36.711Z,4.88
2022-11-29T10:26:07.913Z,4.91
2022-11-29T10:28:36.678Z,4.90
2022-11-29T10:31:14.620Z,4.93
2022-11-29T10:33:41.797Z,5.01
2022-11-29T10:36:39.587Z,4.88
2022-11-29T10:39:14.789Z,4.93
2022-11-29T10:41:41.733Z,4.95
2022-11-29T10:44:14.122Z,5.00
2022-11-29T10:46:41.189Z,4.97
2022-11-29T10:49:14.034Z,4.97
2022-11-29T10:51:40.658Z,4.97
2022-11-29T10:54:32.552Z,4.93
2022-11-29T10:57:00.833Z,4.94
2022-11-29T10:59:32.918Z,4.84
2022-11-29T11:02:01.651Z,4.84
2022-11-29T11:04:28.533Z,4.93
2022-11-29T11:07:00.946Z,4.90
2022-11-29T11:09:30.047Z,4.95
2022-11-29T11:12:02.977Z,4.83
2022-11-29T11:14:37.596Z,4.84
2022-11-29T11:17:26.276Z,4.85
2022-11-29T11:20:04.489Z,4.81
2022-11-29T11:22:33.011Z,4.79
2022-11-29T11:25:25.067Z,4.83
2022-11-29T11:27:51.968Z,4.79
2022-11-29T11:30:23.540Z,4.90
2022-11-29T11:33:27.256Z,4.73
2022-11-29T11:36:14.819Z,4.79
2022-11-29T11:38:49.524Z,4.80
2022-11-29T11:41:51.006Z,4.71
2022-11-29T11:44:45.764Z,4.70
2022-11-29T11:47:15.360Z,4.66
2022-11-29T11:49:50.127Z,4.62
2022-11-29T11:52:30.520Z,4.73
2022-11-29T11:55:03.960Z,4.79
2022-11-29T11:57:31.516Z,4.71
2022-11-29T12:00:06.345Z,4.73
2022-11-29T12:02:41.039Z,4.69
2022-11-29T12:05:18.362Z,4.69
2022-11-29T12:08:09.386Z,4.74
2022-11-29T12:10:39.802Z,4.71
2022-11-29T12:13:14.968Z,4.74
2022-11-29T12:15:44.957Z,4.71
2022-11-29T12:18:26.690Z,4.73
2022-11-29T12:21:25.349Z,4.79
2022-11-29T12:23:58.741Z,4.74
2022-11-29T12:26:55.950Z,4.80
2022-11-29T12:29:18.577Z,4.84
2022-11-29T12:32:03.079Z,4.83
2022-11-29T12:34:51.336Z,4.76
2022-11-29T12:37:37.315Z,4.69
2022-11-29T12:40:30.575Z,4.84
2022-11-29T12:43:21.855Z,4.79
2022-11-29T12:45:51.865Z,4.79
2022-11-29T12:48:33.568Z,4.76
2022-11-29T12:51:48.433Z,4.74
2022-11-29T12:54:47.895Z,4.83
2022-11-29T12:57:50.421Z,4.83
2022-11-29T13:00:19.753Z,4.79
2022-11-29T13:02:55.297Z,4.77
2022-11-29T13:05:50.569Z,4.76
2022-11-29T13:08:40.192Z,4.83
2022-11-29T13:11:24.953Z,4.77
2022-11-29T13:14:13.710Z,4.83
2022-11-29T13:16:45.292Z,4.88
2022-11-29T13:19:44.468Z,4.91
2022-11-29T13:22:27.795Z,4.79
2022-11-29T13:25:25.896Z,4.87
2022-11-29T13:28:01.795Z,4.81
2022-11-29T13:30:28.373Z,4.81
2022-11-29T13:33:24.742Z,4.80
2022-11-29T13:36:06.297Z,4.83
2022-11-29T13:38:45.849Z,4.93
2022-11-29T13:41:30.323Z,4.90
2022-11-29T13:44:09.062Z,4.81
2022-11-29T13:47:02.405Z,4.80
2022-11-29T13:49:55.002Z,4.80
2022-11-29T13:52:45.406Z,4.62
2022-11-29T13:55:11.926Z,4.74
2022-11-29T13:58:14.937Z,4.74
2022-11-29T14:00:44.240Z,4.70
2022-11-29T14:03:28.927Z,4.63
2022-11-29T14:06:01.577Z,4.73
2022-11-29T14:08:37.954Z,4.71
2022-11-29T14:11:16.715Z,4.63
2022-11-29T14:14:08.440Z,4.67
2022-11-29T14:16:39.701Z,4.69
2022-11-29T14:19:20.151Z,4.67
2022-11-29T14:21:58.938Z,4.64
2022-11-29T14:24:37.933Z,4.59
2022-11-29T14:27:10.211Z,4.52
2022-11-29T14:29:48.858Z,4.56
2022-11-29T14:32:39.295Z,4.54
2022-11-29T14:35:12.240Z,4.70
2022-11-29T14:37:59.424Z,4.64
2022-11-29T14:40:40.716Z,4.66
2022-11-29T14:43:26.532Z,4.62
2022-11-29T14:46:08.545Z,4.56
2022-11-29T14:48:36.704Z,4.45
2022-11-29T14:51:15.592Z,4.53
2022-11-29T14:53:44.585Z,4.48
2022-11-29T14:56:29.565Z,4.46
2022-11-29T14:59:33.744Z,4.45
2022-11-29T15:02:35.095Z,4.49
2022-11-29T15:05:19.456Z,4.39
2022-11-29T15:07:52.779Z,4.42
2022-11-29T15:10:24.127Z,4.39
2022-11-29T15:12:51.946Z,4.40
2022-11-29T15:15:38.749Z,4.40
2022-11-29T15:18:10.982Z,4.36
2022-11-29T15:21:08.741Z,4.33
2022-11-29T15:23:43.127Z,4.38
2022-11-29T15:26:21.883Z,4.45
2022-11-29T15:28:48.514Z,4.48
2022-11-29T15:31:18.804Z,4.46
2022-11-29T15:33:48.603Z,4.42
2022-11-29T15:36:24.200Z,4.40
2022-11-29T15:38:52.945Z,4.42
2022-11-29T15:41:37.828Z,4.33
2022-11-29T15:44:06.645Z,4.38
2022-11-29T15:46:34.874Z,4.32
2022-11-29T15:49:18.582Z,4.38
2022-11-29T15:51:50.213Z,4.38
2022-11-29T15:54:34.685Z,4.38
2022-11-29T15:57:06.303Z,4.36
2022-11-29T15:59:46.438Z,4.33
2022-11-29T16:02:19.523Z,4.36
2022-11-29T16:04:47.868Z,4.38
2022-11-29T16:07:15.328Z,4.42
2022-11-29T16:09:46.125Z,4.42
2022-11-29T16:12:15.962Z,4.40
2022-11-29T16:14:55.798Z,4.43
2022-11-29T16:17:27.002Z,4.39
2022-11-29T16:20:13.369Z,4.35
2022-11-29T16:22:40.077Z,4.32
2022-11-29T16:25:15.847Z,4.35
2022-11-29T16:27:43.093Z,4.40
2022-11-29T16:30:23.746Z,4.35
2022-11-29T16:32:56.752Z,4.31
2022-11-29T16:35:29.254Z,4.33
2022-11-29T16:37:56.154Z,4.40
2022-11-29T16:40:27.222Z,4.45
2022-11-29T16:43:02.965Z,4.43
2022-11-29T16:45:42.762Z,4.39
2022-11-29T16:48:21.802Z,4.39
2022-11-29T16:51:23.887Z,4.26
2022-11-29T16:53:51.791Z,4.29
2022-11-29T16:56:24.386Z,4.25
2022-11-29T16:59:20.767Z,4.31
2022-11-29T17:01:48.073Z,4.29
2022-11-29T17:04:23.500Z,4.29
2022-11-29T17:06:52.904Z,4.28
2022-11-29T17:09:22.967Z,4.28
2022-11-29T17:11:49.510Z,4.21
2022-11-29T17:14:16.156Z,4.23
2022-11-29T17:16:42.868Z,4.25
2022-11-29T17:19:13.388Z,4.25
2022-11-29T17:21:40.328Z,4.28
2022-11-29T17:24:11.124Z,4.29
2022-11-29T17:26:37.739Z,4.19
2022-11-29T17:29:04.481Z,4.31
2022-11-29T17:31:31.636Z,4.22
2022-11-29T17:34:01.300Z,4.28
2022-11-29T17:36:28.157Z,4.25
2022-11-29T17:38:54.887Z,4.22
2022-11-29T17:41:24.160Z,4.23
2022-11-29T17:43:52.469Z,4.25
2022-11-29T17:46:24.494Z,4.23
2022-11-29T17:48:52.166Z,4.26
2022-11-29T17:51:50.109Z,4.29
2022-11-29T17:54:08.605Z,4.22
2022-11-29T17:56:35.240Z,4.29
2022-11-29T17:59:03.833Z,4.23
2022-11-29T18:01:33.500Z,4.25
2022-11-29T18:04:01.994Z,4.21
2022-11-29T18:06:36.010Z,4.23
2022-11-29T18:09:07.594Z,4.23
2022-11-29T18:11:45.273Z,4.23
2022-11-29T18:14:23.242Z,4.23
2022-11-29T18:16:50.352Z,4.36
2022-11-29T18:19:19.402Z,4.22
2022-11-29T18:21:46.207Z,4.28
2022-11-29T18:24:12.777Z,4.32
2022-11-29T18:26:39.855Z,4.23
2022-11-29T18:29:07.301Z,4.21
2022-11-29T18:31:36.467Z,4.23
2022-11-29T18:34:07.087Z,4.28
2022-11-29T18:36:36.597Z,4.26
2022-11-29T18:39:11.232Z,4.21
2022-11-29T18:41:38.065Z,4.33
2022-11-29T18:44:10.590Z,4.25
2022-11-29T18:46:38.188Z,4.31
2022-11-29T18:49:06.755Z,4.25
2022-11-29T18:51:35.165Z,4.16
2022-11-29T18:54:02.033Z,4.25
2022-11-29T18:56:30.558Z,4.18
2022-11-29T18:59:05.501Z,4.16
2022-11-29T19:01:34.629Z,4.25
2022-11-29T19:04:01.926Z,4.18
2022-11-29T19:06:38.929Z,4.13
2022-11-29T19:09:07.859Z,4.16
2022-11-29T19:11:34.864Z,4.23
2022-11-29T19:14:05.373Z,4.15
2022-11-29T19:16:33.785Z,4.13
2022-11-29T19:19:01.531Z,4.16
2022-11-29T19:21:31.724Z,4.16
2022-11-29T19:24:00.634Z,4.18
2022-11-29T19:26:29.310Z,4.28
2022-11-29T19:28:56.905Z,4.25
2022-11-29T19:31:25.395Z,4.26
2022-11-29T19:33:52.841Z,4.23
2022-11-29T19:36:24.749Z,4.18
2022-11-29T19:38:54.150Z,4.29
2022-11-29T19:41:22.328Z,4.21
2022-11-29T19:43:49.372Z,4.21
2022-11-29T19:46:27.732Z,4.22
2022-11-29T19:48:56.391Z,4.18
2022-11-29T19:51:24.339Z,4.18
2022-11-29T19:53:55.647Z,4.25
2022-11-29T19:56:23.444Z,4.28
2022-11-29T19:58:50.581Z,4.19
2022-11-29T20:01:19.918Z,4.13
2022-11-29T20:03:46.671Z,4.11
2022-11-29T20:06:14.145Z,4.11
2022-11-29T20:08:41.702Z,4.06
2022-11-29T20:11:09.983Z,4.13
2022-11-29T20:13:37.926Z,4.13
2022-11-29T20:16:09.950Z,4.13
2022-11-29T20:18:39.239Z,4.08
2022-11-29T20:21:09.060Z,4.09
2022-11-29T20:23:35.649Z,4.13
2022-11-29T20:26:02.349Z,4.21
2022-11-29T20:28:29.992Z,4.16
2022-11-29T20:30:56.951Z,4.16
2022-11-29T20:33:25.356Z,4.09
2022-11-29T20:36:06.556Z,4.11
2022-11-29T20:38:41.063Z,4.11
2022-11-29T20:41:31.007Z,4.09
2022-11-29T20:44:01.597Z,3.98
2022-11-29T20:46:28.727Z,3.99
2022-11-29T20:48:57.191Z,3.95
2022-11-29T20:51:40.154Z,4.06
2022-11-29T20:54:07.005Z,3.99
2022-11-29T20:56:33.539Z,4.02
2022-11-29T20:59:00.082Z,4.05
2022-11-29T21:01:26.907Z,4.09
2022-11-29T21:03:53.720Z,4.06
2022-11-29T21:06:20.408Z,4.06
2022-11-29T21:08:47.752Z,4.03
2022-11-29T21:11:14.737Z,4.08
2022-11-29T21:13:41.609Z,3.98
2022-11-29T21:16:11.016Z,4.06
2022-11-29T21:18:38.399Z,3.95
2022-11-29T21:21:34.999Z,3.94
2022-11-29T21:24:04.647Z,3.92
2022-11-29T21:26:42.303Z,3.95
2022-11-29T21:29:20.785Z,3.92
2022-11-29T21:31:53.405Z,3.91
2022-11-29T21:34:22.907Z,3.91
2022-11-29T21:36:57.229Z,3.88
2022-11-29T21:39:29.676Z,3.91
2022-11-29T21:41:56.279Z,3.85
2022-11-29T21:44:22.849Z,3.87
2022-11-29T21:46:50.079Z,3.97
2022-11-29T21:49:16.728Z,3.92
2022-11-29T21:51:43.382Z,3.88
2022-11-29T21:54:10.087Z,3.97
2022-11-29T21:56:37.309Z,3.94
2022-11-29T21:59:03.999Z,3.92
2022-11-29T22:01:30.652Z,3.95
2022-11-29T22:03:57.255Z,3.88
2022-11-29T22:06:28.205Z,3.94
2022-11-29T22:08:54.886Z,3.87
2022-11-29T22:11:32.130Z,3.84
2022-11-29T22:14:16.114Z,3.88
2022-11-29T22:16:48.036Z,3.82
2022-11-29T22:19:20.130Z,3.88
2022-11-29T22:21:49.990Z,3.88
2022-11-29T22:24:18.726Z,3.88
2022-11-29T22:26:45.874Z,3.90
2022-11-29T22:29:14.108Z,3.91
2022-11-29T22:31:42.157Z,3.85
2022-11-29T22:34:08.941Z,3.90
2022-11-29T22:36:36.062Z,3.85
2022-11-29T22:39:03.915Z,3.80
2022-11-29T22:41:32.020Z,3.77
2022-11-29T22:43:58.627Z,3.78
2022-11-29T22:46:27.065Z,3.77
2022-11-29T22:48:55.566Z,3.87
2022-11-29T22:51:28.697Z,3.78
2022-11-29T22:53:57.117Z,3.75
2022-11-29T22:56:26.425Z,3.80
2022-11-29T22:58:53.366Z,3.85
2022-11-29T23:01:25.564Z,3.80
2022-11-29T23:03:57.217Z,3.84
2022-11-29T23:06:29.477Z,3.84
2022-11-29T23:08:59.200Z,3.81
2022-11-29T23:11:28.096Z,3.80
2022-11-29T23:13:55.282Z,3.88
2022-11-29T23:16:27.993Z,3.82
2022-11-29T23:18:55.622Z,3.90
2022-11-29T23:21:24.959Z,3.84
2022-11-29T23:23:56.355Z,3.77
2022-11-29T23:26:29.168Z,3.84
2022-11-29T23:28:56.460Z,3.90
2022-11-29T23:31:24.186Z,3.91
2022-11-29T23:33:50.945Z,3.85
2022-11-29T23:36:17.728Z,3.80
2022-11-29T23:38:44.828Z,3.81
2022-11-29T23:41:12.027Z,3.77
2022-11-29T23:43:40.554Z,3.74
2022-11-29T23:46:25.484Z,3.74
2022-11-29T23:48:52.538Z,3.77
2022-11-29T23:51:19.772Z,3.71
2022-11-29T23:53:50.109Z,3.81
2022-11-29T23:56:17.989Z,3.78
2022-11-29T23:58:45.420Z,3.85
